Tyler, TX (75701)

8:11 AM CST on March 06, 2015 (GMT -0600)
McDonaldRd | Change Station
CLOSE
Current Station
Personal Weather Station
Location: Tyler, TX
Elevation: 623 ft
Nearby Weather Stations
Active Advisory: Flood Warning Active Notice: Public Information Statement

Elev 623 ft 32.32 °N, 95.27 °W | Updated 4 minutes ago

Clear
Clear
29.1 °F
Feels Like 29 °F
N
2.0
Wind Variable Wind from NE
Gusts 2.0 mph

Today
High -- | Low -- °F
--% Chance of Precip.
Yesterday
High -- | Low -- °F
Precip. -- in
6:42 AM 6:22 PM
Full, 99% visible
Pressure 30.60 in
Visibility 10.0 miles
Clouds Clear
Windchill 29 °F
Dew Point 25 °F
Humidity 83%
Rainfall in
Snow Depth Not available.
UV 1 out of 12
Pollen 6.90 out of 12
Air Quality Not available.
Flu Activity Not available.
METAR KTYR 061353Z 00000KT 10SM CLR M01/M04 A3059 RMK AO2 SLP361 T10111039 $

More Conditions Fewer Conditions

Pressure 30.60 in
Visibility 10.0 miles
Clouds Clear
Windchill 29 °F
Dew Point 25 °F
Humidity 83%
Rainfall in
Snow Depth Not available.
UV 1 out of 12
Pollen 6.90 out of 12
Air Quality Not available.
Flu Activity Not available.
METAR KTYR 061353Z 00000KT 10SM CLR M01/M04 A3059 RMK AO2 SLP361 T10111039 $

More Conditions Fewer Conditions

10-Day Weather Forecast

Almanac

Astronomy

Mar. 06, 2015 Rise Set
Actual Time
Civil Twilight
Nautical Twilight
Astronomical Twilight
Moon
Length of Visible Light
Length of Day
Tomorrow will be .
, % of the Moon is Illuminated

Today's Extremes

State Highs State Lows

Community

WunderPhotos

Upload Photos

1,803,275 photos uploaded!

WunderBlogs® & News

Nearby

Air Quality

  Air Quality AQ Index Pollutant
Not available.

Snow Depth

Station Depth Elevation

Earthquake Activity

City Distance Mag. Time & Date
Minimum magnitude displayed is 2.5.

Coastal Water Temperatures

Place Temperature

Nearby Weather Stations

Flood Warning
Statement as of 7:43 AM CST on March 06, 2015

... The Flood Warning extended until late Sunday night... the Flood
Warning continues for
the Sabine River near Mineola Texas.
* Until late Sunday night... or until the warning is cancelled.
* At 715 am Friday the stage was 14.6 feet.
* Minor flooding is occurring and minor flooding is forecast.
* Flood stage is 14 feet.
* Forecast... the river will continue rising to near 15.0 feet by
early Saturday morning. The river will fall below flood stage
Sunday morning.
* Impact... minor lowland flooding.


Lat... Lon 3278 9574 3263 9535 3257 9535 3259 9550 3273 9574